Time;durP1;ratioP1;P1;durP2;ratioP2;P2;SDS_P1;SDS_P2;PMS_P1;PMS_P2;Temp;Humidity;BMP_temperature;BMP_pressure;BME280_temperature;BME280_humidity;BME280_pressure;Samples;Min_cycle;Max_cycle;Signal;HPM_P1;HPM_P2
2021/12/02 00:00:14;;;;;;;2.60;1.60;;;;;;;-3.63;63.27;97889.88;5030100;28;20033;-54
2021/12/02 00:02:39;;;;;;;4.25;1.85;;;;;;;-3.87;62.83;97854.56;5029960;28;20495;-54
2021/12/02 00:05:06;;;;;;;4.95;1.60;;;;;;;-3.66;62.70;97881.34;5029575;28;20032;-58
2021/12/02 00:07:31;;;;;;;2.78;1.70;;;;;;;-3.62;63.39;97894.19;5030797;28;20029;-59
2021/12/02 00:09:57;;;;;;;4.15;1.60;;;;;;;-3.61;63.46;97898.50;5029995;28;20034;-59
2021/12/02 00:12:22;;;;;;;3.88;1.73;;;;;;;-3.61;63.28;97908.09;5029892;28;20053;-58
2021/12/02 00:14:49;;;;;;;2.65;1.52;;;;;;;-3.58;63.04;97909.72;5029763;28;20038;-59
2021/12/02 00:17:24;;;;;;;4.00;1.88;;;;;;;-3.63;62.72;97916.03;5029492;28;20034;-59
2021/12/02 00:22:48;;;;;;;2.97;1.80;;;;;;;-3.72;63.67;97919.13;5029726;28;20473;-58
2021/12/02 00:25:14;;;;;;;3.60;1.60;;;;;;;-3.68;63.69;97925.91;5029035;28;20040;-56
2021/12/02 00:27:41;;;;;;;3.63;1.90;;;;;;;-3.79;63.71;97909.94;5031286;28;20037;-55
2021/12/02 00:30:07;;;;;;;2.83;1.55;;;;;;;-3.70;64.15;97937.38;5031575;28;20573;-56
2021/12/02 00:32:33;;;;;;;5.15;2.08;;;;;;;-3.67;63.75;97931.97;5034234;28;20044;-55
2021/12/02 00:34:59;;;;;;;4.32;2.10;;;;;;;-3.64;63.37;97945.72;5033325;28;20051;-58
2021/12/02 00:37:26;;;;;;;4.72;1.80;;;;;;;-3.73;63.77;97938.38;5034083;28;20454;-56
2021/12/02 00:39:52;;;;;;;3.38;1.80;;;;;;;-3.68;63.01;97951.22;5033241;28;20095;-59
2021/12/02 00:42:19;;;;;;;2.65;1.60;;;;;;;-3.84;63.25;97912.78;5033198;28;20083;-58
2021/12/02 00:44:46;;;;;;;3.40;1.52;;;;;;;-3.61;63.41;97958.66;5033761;28;20086;-56
2021/12/02 00:47:12;;;;;;;3.83;1.65;;;;;;;-3.70;64.16;97972.22;5032593;28;20038;-54
2021/12/02 00:49:39;;;;;;;5.35;2.15;;;;;;;-3.70;63.86;97971.38;5033160;28;20040;-55
2021/12/02 00:52:06;;;;;;;2.72;1.38;;;;;;;-3.64;63.20;97982.34;5032865;28;20048;-57
2021/12/02 00:54:31;;;;;;;3.97;2.08;;;;;;;-3.53;63.15;97983.56;5032812;28;20115;-55
2021/12/02 00:56:57;;;;;;;3.00;1.90;;;;;;;-3.63;63.59;97989.25;5033975;28;20389;-59
2021/12/02 00:59:23;;;;;;;3.22;1.60;;;;;;;-3.64;64.18;97995.41;5033168;28;20136;-56
2021/12/02 01:01:51;;;;;;;3.47;1.80;;;;;;;-3.62;63.80;97990.97;5031516;28;20025;-57
2021/12/02 01:04:22;;;;;;;2.97;1.77;;;;;;;-3.61;63.80;97991.81;5032699;28;20033;-54
2021/12/02 01:06:48;;;;;;;1.95;1.45;;;;;;;-3.58;64.13;97990.81;5032941;28;20039;-56
2021/12/02 01:09:13;;;;;;;3.13;1.70;;;;;;;-3.52;63.67;97995.72;5032428;28;20101;-57
2021/12/02 01:11:40;;;;;;;3.28;1.83;;;;;;;-3.49;63.50;98000.78;5032159;28;20064;-54
2021/12/02 01:14:07;;;;;;;3.70;1.50;;;;;;;-3.42;63.08;97994.28;5032581;28;20041;-55
2021/12/02 01:16:33;;;;;;;1.98;1.42;;;;;;;-3.45;63.08;97997.06;5032541;28;20037;-58
2021/12/02 01:18:59;;;;;;;2.63;1.67;;;;;;;-3.44;63.53;98004.00;5032312;28;20029;-56
2021/12/02 01:21:27;;;;;;;2.38;1.38;;;;;;;-3.39;63.38;98003.78;5032236;28;20033;-56
2021/12/02 01:24:02;;;;;;;2.90;1.40;;;;;;;-3.37;63.82;97999.28;5050797;28;20166;-55
2021/12/02 01:26:30;;;;;;;2.13;1.17;;;;;;;-3.41;63.47;98011.69;5052485;28;20453;-52
2021/12/02 01:28:57;;;;;;;2.67;1.45;;;;;;;-3.38;63.49;98013.31;5051737;28;20036;-53
2021/12/02 01:31:23;;;;;;;2.63;1.27;;;;;;;-3.35;63.30;98018.38;5051939;28;20060;-58
2021/12/02 01:33:49;;;;;;;2.67;1.45;;;;;;;-3.34;62.81;98020.94;5049757;28;20037;-53
2021/12/02 01:36:15;;;;;;;2.25;1.80;;;;;;;-3.41;63.25;98021.31;5051845;28;20040;-54
2021/12/02 01:38:41;;;;;;;2.15;1.40;;;;;;;-3.46;63.26;98029.41;5051510;28;20354;-57
2021/12/02 01:41:06;;;;;;;2.35;1.27;;;;;;;-3.44;63.21;98031.97;5051639;28;20492;-54
2021/12/02 01:43:53;;;;;;;3.13;1.45;;;;;;;-3.43;63.60;98012.72;5051607;28;20074;-57
2021/12/02 01:46:23;;;;;;;1.50;1.10;;;;;;;-3.38;63.47;98029.84;5050851;28;20526;-60
2021/12/02 01:48:59;;;;;;;1.55;1.10;;;;;;;-3.35;63.16;98034.06;5044354;28;20147;-54
2021/12/02 01:51:26;;;;;;;1.77;1.00;;;;;;;-3.27;62.92;98031.88;5051486;28;20044;-57
2021/12/02 01:54:07;;;;;;;2.13;1.00;;;;;;;-3.59;63.30;97986.50;5052060;28;20025;-57
2021/12/02 01:56:43;;;;;;;2.70;1.20;;;;;;;-3.35;63.80;98029.69;5052162;28;20037;-55
2021/12/02 01:59:18;;;;;;;2.83;1.25;;;;;;;-3.23;62.92;98032.59;5049646;28;20032;-58
2021/12/02 02:01:48;;;;;;;3.42;1.23;;;;;;;-3.23;62.91;98036.06;5051376;28;20033;-59
2021/12/02 02:04:15;;;;;;;2.30;1.40;;;;;;;-3.22;62.63;98044.75;5051786;28;20025;-57
2021/12/02 02:06:55;;;;;;;4.25;1.30;;;;;;;-3.19;62.90;98047.19;5051477;28;20029;-58
2021/12/02 02:09:20;;;;;;;2.97;1.20;;;;;;;-3.21;62.62;98046.44;5051548;28;20086;-58
2021/12/02 02:11:47;;;;;;;1.80;1.17;;;;;;;-3.21;62.91;98055.16;5049583;28;20485;-57
2021/12/02 02:14:12;;;;;;;2.60;1.20;;;;;;;-3.21;62.28;98049.06;5051346;28;20067;-57
2021/12/02 02:16:39;;;;;;;2.13;1.27;;;;;;;-3.21;62.62;98046.44;5051309;28;20390;-56
2021/12/02 02:19:06;;;;;;;0.93;0.75;;;;;;;-3.22;62.87;98047.38;5050923;28;20059;-55
2021/12/02 02:21:35;;;;;;;3.83;1.17;;;;;;;-3.24;62.56;98049.22;5050982;28;20090;-57
2021/12/02 02:24:02;;;;;;;1.10;0.70;;;;;;;-3.25;62.32;98058.84;5049477;28;20035;-56
2021/12/02 02:26:35;;;;;;;1.55;0.90;;;;;;;-3.19;62.25;98060.28;5051078;28;20041;-57
2021/12/02 02:29:03;;;;;;;1.75;1.00;;;;;;;-3.32;62.12;98054.84;5051115;28;20029;-59
2021/12/02 02:31:30;;;;;;;2.05;1.02;;;;;;;-3.31;62.25;98059.16;5049599;28;20051;-54
2021/12/02 02:33:56;;;;;;;1.67;1.10;;;;;;;-3.38;62.03;98065.66;5050860;28;20496;-56
2021/12/02 02:36:25;;;;;;;1.48;1.08;;;;;;;-3.41;62.67;98066.63;5049513;28;20076;-58
2021/12/02 02:38:57;;;;;;;2.58;1.08;;;;;;;-3.37;62.37;98068.19;5051124;28;20035;-55
2021/12/02 02:41:27;;;;;;;1.60;1.00;;;;;;;-3.28;62.08;98079.09;5051019;28;20036;-56
2021/12/02 02:43:57;;;;;;;0.90;0.70;;;;;;;-3.30;61.72;98075.72;5049944;28;20489;-57
2021/12/02 02:46:25;;;;;;;0.95;0.70;;;;;;;-3.33;61.63;98080.19;5051032;28;20037;-55
2021/12/02 02:48:52;;;;;;;3.80;0.90;;;;;;;-3.34;62.17;98082.88;5049242;28;20029;-57
2021/12/02 02:51:18;;;;;;;1.30;0.82;;;;;;;-3.35;61.83;98082.03;5049627;28;20037;-57
2021/12/02 02:53:47;;;;;;;1.83;0.68;;;;;;;-3.34;62.01;98081.13;5051012;28;20074;-57
2021/12/02 02:56:16;;;;;;;0.77;0.70;;;;;;;-3.34;62.33;98077.63;5050560;28;20036;-58
2021/12/02 03:01:25;;;;;;;2.30;0.85;;;;;;;-3.34;62.14;98082.88;5050333;28;20033;-54
2021/12/02 03:09:09;;;;;;;1.00;0.77;;;;;;;-3.36;61.47;98095.19;5030825;28;20029;-56
2021/12/02 03:12:22;;;;;;;1.50;0.93;;;;;;;-3.36;61.86;98090.81;5031464;28;20040;-58
2021/12/02 03:14:52;;;;;;;1.10;0.63;;;;;;;-3.33;62.07;98095.03;5035917;28;20045;-59
2021/12/02 03:17:17;;;;;;;1.75;0.65;;;;;;;-3.30;61.70;98094.03;5030723;28;20064;-56
2021/12/02 03:19:45;;;;;;;0.75;0.52;;;;;;;-3.32;61.73;98100.19;5030936;28;20057;-58
2021/12/02 03:22:17;;;;;;;1.33;0.80;;;;;;;-3.53;61.52;98057.66;5029383;28;20021;-57
2021/12/02 03:24:42;;;;;;;0.70;0.60;;;;;;;-3.41;60.73;98100.66;5030042;28;20021;-59
2021/12/02 03:27:08;;;;;;;0.57;0.57;;;;;;;-3.36;60.75;98108.28;5029189;28;20120;-57
2021/12/02 03:29:34;;;;;;;1.65;0.70;;;;;;;-3.51;61.41;98081.13;5030884;28;20045;-58
2021/12/02 03:31:59;;;;;;;1.50;0.80;;;;;;;-3.35;61.72;98118.69;5030693;28;20034;-56
2021/12/02 03:34:25;;;;;;;2.20;0.85;;;;;;;-3.33;60.93;98108.97;5030388;28;20049;-54
2021/12/02 03:36:52;;;;;;;2.00;0.70;;;;;;;-3.32;60.65;98113.28;5030554;28;20036;-57
2021/12/02 03:39:18;;;;;;;1.90;0.70;;;;;;;-3.30;61.35;98109.75;5030615;28;20120;-55
2021/12/02 03:41:45;;;;;;;0.75;0.60;;;;;;;-3.29;61.14;98100.97;5031791;28;20484;-56
2021/12/02 03:44:11;;;;;;;1.40;0.77;;;;;;;-3.27;60.94;98126.13;5030290;28;20502;-56
2021/12/02 03:46:40;;;;;;;1.35;0.85;;;;;;;-3.22;60.52;98115.41;5029029;28;20041;-57
2021/12/02 03:49:06;;;;;;;1.40;0.73;;;;;;;-3.44;60.46;98076.44;5030558;28;20033;-55
2021/12/02 03:51:32;;;;;;;2.63;0.90;;;;;;;-3.20;60.98;98117.03;5030810;28;20030;-58
2021/12/02 03:53:58;;;;;;;1.02;0.88;;;;;;;-3.19;61.11;98123.97;5045676;28;20031;-55
2021/12/02 03:56:24;;;;;;;0.80;0.60;;;;;;;-3.20;60.60;98126.66;5050397;28;20036;-56
2021/12/02 03:58:51;;;;;;;2.33;1.10;;;;;;;-3.23;60.68;98130.28;5050254;28;20102;-55
2021/12/02 04:01:17;;;;;;;1.20;0.90;;;;;;;-3.30;60.78;98128.91;5048677;28;20032;-57
2021/12/02 04:03:43;;;;;;;1.40;0.90;;;;;;;-3.30;60.72;98135.91;5052960;28;20073;-54
2021/12/02 04:06:10;;;;;;;2.05;0.90;;;;;;;-3.34;61.11;98138.69;5051698;28;20423;-58
2021/12/02 04:08:45;;;;;;;0.80;0.65;;;;;;;-3.38;61.23;98142.38;5053453;28;20120;-56
2021/12/02 04:11:20;;;;;;;;;;;;;;;-3.17;62.14;98148.28;5054079;28;20035;-58
2021/12/02 04:16:18;;;;;;;2.03;0.85;;;;;;;-3.53;61.45;98119.63;5053887;28;20036;-55
2021/12/02 04:18:44;;;;;;;2.63;0.98;;;;;;;-3.37;61.16;98143.22;5039596;28;20140;-54
2021/12/02 04:21:10;;;;;;;1.95;1.00;;;;;;;-3.36;61.37;98164.09;5033581;28;20136;-54
2021/12/02 04:23:36;;;;;;;2.63;1.35;;;;;;;-3.35;61.56;98171.03;5033797;28;20038;-56
2021/12/02 04:26:01;;;;;;;2.08;1.10;;;;;;;-3.37;61.37;98157.16;5033763;28;20040;-56
2021/12/02 04:28:27;;;;;;;3.22;1.30;;;;;;;-3.38;61.37;98163.31;5033666;28;20047;-56
2021/12/02 04:30:52;;;;;;;1.65;1.15;;;;;;;-3.39;62.03;98166.84;5041938;28;20121;-56
2021/12/02 04:33:18;;;;;;;2.70;1.42;;;;;;;-3.40;61.80;98170.38;5053759;28;20037;-54
2021/12/02 04:35:43;;;;;;;4.20;1.40;;;;;;;-3.42;61.89;98168.78;5051935;28;20044;-59
2021/12/02 04:38:09;;;;;;;2.50;1.52;;;;;;;-3.45;61.76;98164.53;5052910;28;20387;-54
2021/12/02 04:40:36;;;;;;;2.35;1.55;;;;;;;-3.57;61.63;98150.31;5053438;28;20028;-56
2021/12/02 04:43:03;;;;;;;3.05;1.63;;;;;;;-3.73;61.55;98134.53;5050903;28;20025;-55
2021/12/02 04:45:28;;;;;;;3.05;1.80;;;;;;;-3.50;61.62;98163.94;5053170;28;20036;-56
2021/12/02 04:47:53;;;;;;;3.95;1.98;;;;;;;-3.51;62.06;98164.84;5053489;28;20021;-58
2021/12/02 04:50:19;;;;;;;3.08;1.80;;;;;;;-3.54;62.07;98159.78;5053333;28;20036;-57
2021/12/02 04:52:45;;;;;;;2.15;1.63;;;;;;;-3.94;61.85;98105.91;5053214;28;20868;-56
2021/12/02 04:55:11;;;;;;;2.40;1.50;;;;;;;-3.77;62.01;98156.53;5051341;28;20033;-57
2021/12/02 04:57:36;;;;;;;2.50;1.55;;;;;;;-3.89;61.57;98173.66;5053671;28;20476;-57
2021/12/02 05:00:04;;;;;;;5.45;1.83;;;;;;;-4.01;62.23;98185.56;5035297;28;20461;-57
2021/12/02 05:02:30;;;;;;;2.45;1.63;;;;;;;-4.15;62.46;98185.34;5052687;28;20059;-57
2021/12/02 05:04:55;;;;;;;3.17;1.55;;;;;;;-4.22;62.55;98185.63;5053008;28;20037;-55
2021/12/02 05:07:21;;;;;;;2.40;1.63;;;;;;;-4.22;62.95;98190.00;5052160;28;20037;-55
2021/12/02 05:09:46;;;;;;;2.70;1.65;;;;;;;-4.27;62.30;98182.41;5051178;28;20103;-58
2021/12/02 05:12:12;;;;;;;3.00;1.70;;;;;;;-4.22;62.16;98193.47;5050955;28;20040;-55
2021/12/02 05:14:37;;;;;;;4.43;1.80;;;;;;;-4.20;62.54;98194.25;5051477;28;20104;-57
2021/12/02 05:17:03;;;;;;;2.28;1.42;;;;;;;-4.18;62.82;98196.81;5052685;28;20086;-58
2021/12/02 05:19:28;;;;;;;2.45;1.77;;;;;;;-4.15;62.48;98196.66;5052655;28;20029;-57
2021/12/02 05:21:54;;;;;;;2.60;1.85;;;;;;;-4.16;61.91;98191.50;5050955;28;20116;-55
2021/12/02 05:24:19;;;;;;;4.15;1.83;;;;;;;-4.09;62.25;98198.97;5051386;28;20037;-54
2021/12/02 05:26:45;;;;;;;4.40;1.98;;;;;;;-4.05;62.39;98210.16;5052907;28;20041;-55
2021/12/02 05:29:10;;;;;;;3.33;1.65;;;;;;;-4.03;61.93;98208.31;5052495;28;20025;-59
2021/12/02 05:31:36;;;;;;;3.53;2.05;;;;;;;-4.10;61.85;98196.41;5051965;28;20451;-55
2021/12/02 05:34:01;;;;;;;2.50;1.65;;;;;;;-4.07;61.38;98207.59;5050556;28;20533;-57
2021/12/02 05:36:27;;;;;;;3.08;1.88;;;;;;;-4.08;61.84;98207.69;5051291;28;20079;-54
2021/12/02 05:38:52;;;;;;;3.63;2.05;;;;;;;-4.07;61.94;98219.84;5052415;28;20033;-55
2021/12/02 05:41:18;;;;;;;3.58;1.70;;;;;;;-4.06;61.80;98226.75;5051069;28;20041;-55
2021/12/02 05:43:43;;;;;;;2.47;1.75;;;;;;;-4.13;60.89;98212.25;5052219;28;20029;-56
2021/12/02 05:46:09;;;;;;;5.28;1.77;;;;;;;-4.14;61.73;98234.09;5050712;28;20033;-54
2021/12/02 05:48:35;;;;;;;2.90;1.40;;;;;;;-4.19;61.43;98222.09;5051910;28;20082;-58
2021/12/02 05:51:01;;;;;;;4.25;2.38;;;;;;;-4.07;61.38;98249.41;5051476;28;20420;-57
2021/12/02 05:53:27;;;;;;;2.70;1.77;;;;;;;-4.19;60.89;98224.69;5050483;28;20063;-52
2021/12/02 05:55:53;;;;;;;2.40;1.50;;;;;;;-3.95;60.64;98255.00;5052286;28;20036;-56
2021/12/02 05:58:18;;;;;;;1.88;1.35;;;;;;;-3.92;60.24;98247.03;5049908;28;20040;-56
2021/12/02 06:00:44;;;;;;;3.33;1.60;;;;;;;-3.89;60.82;98239.03;5051485;28;20036;-56
2021/12/02 06:03:10;;;;;;;4.93;1.98;;;;;;;-3.85;59.97;98247.59;5050201;28;20038;-55
2021/12/02 06:05:36;;;;;;;2.85;1.40;;;;;;;-3.79;59.76;98255.97;5050500;28;20033;-53
2021/12/02 06:08:03;;;;;;;2.67;1.48;;;;;;;-3.72;59.65;98243.47;5051907;28;20025;-59
2021/12/02 06:10:30;;;;;;;2.05;1.30;;;;;;;-3.55;59.59;98252.28;5050769;28;20037;-57
2021/12/02 06:12:56;;;;;;;5.78;1.90;;;;;;;-3.44;59.27;98249.13;5050605;28;20032;-54
2021/12/02 06:15:22;;;;;;;5.50;1.65;;;;;;;-3.26;59.12;98255.22;5040106;28;20037;-58
2021/12/02 06:17:48;;;;;;;2.55;1.60;;;;;;;-3.17;58.99;98255.63;5034213;28;20038;-58
2021/12/02 06:20:19;;;;;;;3.22;1.80;;;;;;;-3.12;58.33;98265.88;5031746;28;20034;-58
2021/12/02 06:22:46;;;;;;;2.63;1.83;;;;;;;-3.06;58.71;98259.47;5031727;28;20030;-59
2021/12/02 06:27:53;;;;;;;5.90;2.05;;;;;;;-2.96;58.49;98270.31;5031605;28;20477;-57
2021/12/02 06:30:22;;;;;;;3.72;1.80;;;;;;;-2.93;58.97;98281.50;5030819;28;20124;-55
2021/12/02 06:32:47;;;;;;;3.70;2.00;;;;;;;-2.91;58.43;98278.78;5030976;28;20080;-59
2021/12/02 06:35:13;;;;;;;6.30;2.00;;;;;;;-2.94;58.46;98289.44;5031367;28;20029;-53
2021/12/02 06:37:39;;;;;;;6.00;1.85;;;;;;;-2.92;58.40;98290.19;5032701;28;20388;-56
2021/12/02 06:40:06;;;;;;;8.73;1.65;;;;;;;-2.88;58.11;98289.13;5042715;28;20164;-55
2021/12/02 06:42:32;;;;;;;5.03;1.98;;;;;;;-3.15;58.66;98258.16;5038105;28;20033;-55
2021/12/02 06:44:58;;;;;;;3.92;2.00;;;;;;;-2.96;58.51;98288.66;5040834;28;20201;-51
2021/12/02 06:47:30;;;;;;;7.68;2.20;;;;;;;-2.86;58.38;98294.28;5040610;28;20080;-51
2021/12/02 06:49:59;;;;;;;3.40;1.88;;;;;;;-2.82;58.53;98287.97;5041358;28;20118;-53
2021/12/02 06:52:27;;;;;;;3.58;1.85;;;;;;;-2.80;58.17;98302.69;5039974;28;20032;-54
2021/12/02 06:54:53;;;;;;;3.15;1.67;;;;;;;-2.71;57.93;98295.28;5039678;28;20025;-55
2021/12/02 06:57:18;;;;;;;8.00;3.40;;;;;;;-2.66;57.79;98285.41;5039533;28;20033;-54
2021/12/02 06:59:44;;;;;;;5.05;2.47;;;;;;;-2.59;57.71;98284.19;5040692;28;20029;-55
2021/12/02 07:02:10;;;;;;;10.32;2.38;;;;;;;-2.70;57.03;98261.16;5038865;28;20035;-54
2021/12/02 07:04:35;;;;;;;2.97;1.88;;;;;;;-2.43;56.77;98289.47;5039544;28;20036;-53
2021/12/02 07:07:01;;;;;;;5.78;2.30;;;;;;;-2.36;57.07;98282.13;5039409;28;20029;-54
2021/12/02 07:09:26;;;;;;;10.55;2.50;;;;;;;-2.29;56.62;98291.38;5043912;28;20507;-54
2021/12/02 07:11:52;;;;;;;6.35;2.30;;;;;;;-2.24;57.44;98291.97;5037606;28;20492;-57
2021/12/02 07:14:19;;;;;;;8.57;2.00;;;;;;;-2.13;56.91;98291.41;5039869;28;20021;-53
2021/12/02 07:16:45;;;;;;;5.95;2.10;;;;;;;-2.08;56.22;98280.66;5048732;28;20388;-55
2021/12/02 07:19:12;;;;;;;4.85;2.47;;;;;;;-1.94;56.50;98295.66;5050980;28;20492;-50
2021/12/02 07:21:40;;;;;;;6.15;2.28;;;;;;;-1.88;55.76;98304.06;5050024;28;20115;-54
2021/12/02 07:24:07;;;;;;;4.30;2.15;;;;;;;-1.85;56.16;98310.06;5050723;28;20472;-54
2021/12/02 07:26:41;;;;;;;4.38;2.20;;;;;;;-1.90;55.42;98292.78;5035814;28;20510;-55
2021/12/02 07:29:15;;;;;;;6.28;1.98;;;;;;;-1.88;56.12;98295.31;5034890;28;20107;-54
2021/12/02 07:31:42;;;;;;;4.60;1.85;;;;;;;-1.85;56.55;98289.06;5051016;28;20064;-56
2021/12/02 07:34:09;;;;;;;5.75;2.03;;;;;;;-1.81;55.32;98299.31;5047681;28;20038;-54
2021/12/02 07:36:36;;;;;;;4.25;2.00;;;;;;;-1.80;55.15;98292.28;5050271;28;20163;-54
2021/12/02 07:39:05;;;;;;;8.70;2.13;;;;;;;-1.76;55.34;98294.66;5040667;28;20016;-57
2021/12/02 07:41:31;;;;;;;5.43;2.00;;;;;;;-1.79;55.57;98296.59;5040700;28;20033;-54
2021/12/02 07:43:57;;;;;;;3.95;1.80;;;;;;;-1.81;55.77;98296.69;5038919;28;20169;-58
2021/12/02 07:46:23;;;;;;;5.18;2.00;;;;;;;-1.79;55.70;98288.72;5034337;28;20033;-58
2021/12/02 07:48:48;;;;;;;4.07;1.92;;;;;;;-1.77;55.90;98292.13;5036817;28;20064;-54
2021/12/02 07:51:16;;;;;;;4.53;2.13;;;;;;;-1.68;55.83;98296.88;5039662;28;20466;-53
2021/12/02 07:53:45;;;;;;;5.53;1.67;;;;;;;-1.59;55.73;98300.75;5036549;28;20041;-53
2021/12/02 07:56:14;;;;;;;3.67;1.80;;;;;;;-1.53;55.26;98300.44;5039920;28;20036;-55
2021/12/02 07:58:43;;;;;;;5.15;1.98;;;;;;;-1.55;55.80;98307.53;5039327;28;20022;-57
2021/12/02 08:01:09;;;;;;;5.22;2.30;;;;;;;-1.50;55.97;98296.75;5040691;28;20063;-55
2021/12/02 08:03:34;;;;;;;3.75;2.10;;;;;;;-1.50;56.16;98284.50;5036370;28;20051;-56
2021/12/02 08:06:00;;;;;;;4.53;2.28;;;;;;;-1.51;56.01;98292.44;5057917;28;20036;-53
2021/12/02 08:08:26;;;;;;;3.58;2.15;;;;;;;-1.59;56.47;98280.59;5058556;28;20056;-54
2021/12/02 08:10:51;;;;;;;4.53;2.67;;;;;;;-1.54;55.77;98290.00;5054016;28;20108;-60
2021/12/02 08:13:17;;;;;;;19.67;3.20;;;;;;;-1.59;56.48;98283.22;5065640;28;20044;-56
2021/12/02 08:15:42;;;;;;;4.50;2.40;;;;;;;-1.59;56.35;98280.59;5047845;28;20071;-56
2021/12/02 08:18:09;;;;;;;4.60;2.47;;;;;;;-1.54;56.15;98287.38;5061572;28;20036;-55
2021/12/02 08:20:36;;;;;;;4.68;2.30;;;;;;;-1.53;56.49;98278.56;5044465;28;20036;-56
2021/12/02 08:23:02;;;;;;;5.78;2.63;;;;;;;-1.51;55.88;98282.81;5044598;28;20393;-58
2021/12/02 08:25:29;;;;;;;5.97;2.10;;;;;;;-1.50;56.57;98292.38;5065837;28;20056;-57
2021/12/02 08:27:59;;;;;;;5.22;2.40;;;;;;;-1.54;56.25;98271.63;5046279;28;20017;-57
2021/12/02 08:30:26;;;;;;;5.90;2.10;;;;;;;-1.55;56.28;98267.31;5050399;28;20528;-59
2021/12/02 08:32:53;;;;;;;3.40;2.08;;;;;;;-1.57;56.80;98256.06;5063835;28;20032;-57
2021/12/02 08:35:19;;;;;;;4.88;2.40;;;;;;;-1.57;56.20;98251.63;5052785;28;20048;-57
2021/12/02 08:37:47;;;;;;;8.18;2.65;;;;;;;-1.46;56.60;98274.66;5064364;28;20021;-57
2021/12/02 08:40:17;;;;;;;7.40;2.30;;;;;;;-1.41;56.66;98266.53;5055264;28;20085;-57
2021/12/02 08:42:43;;;;;;;6.95;2.90;;;;;;;-1.39;56.92;98265.53;5055084;28;20033;-58
2021/12/02 08:45:10;;;;;;;5.55;2.70;;;;;;;-1.34;56.78;98252.97;5052667;28;20492;-57
2021/12/02 08:47:43;;;;;;;8.73;3.00;;;;;;;-1.35;56.19;98245.16;5066179;28;20773;-59
2021/12/02 08:50:09;;;;;;;6.03;2.70;;;;;;;-1.25;56.41;98258.63;5059519;28;20081;-57
2021/12/02 08:52:34;;;;;;;7.10;2.75;;;;;;;-1.19;56.32;98253.03;5058431;28;20033;-56
2021/12/02 08:55:00;;;;;;;6.25;3.28;;;;;;;-1.17;56.29;98244.13;5063394;28;20125;-57
2021/12/02 08:57:25;;;;;;;7.63;3.17;;;;;;;-1.13;55.93;98233.44;5055648;28;20044;-55
2021/12/02 08:59:51;;;;;;;4.90;2.90;;;;;;;-1.09;55.88;98241.06;5048507;28;20103;-58
2021/12/02 09:02:17;;;;;;;5.55;2.75;;;;;;;-1.10;56.06;98247.25;5063037;28;20029;-60
2021/12/02 09:04:42;;;;;;;7.35;2.75;;;;;;;-1.17;55.43;98219.66;5065921;28;20055;-58
2021/12/02 09:07:09;;;;;;;5.85;2.40;;;;;;;-1.04;55.75;98249.50;5069019;28;20476;-54
2021/12/02 09:09:35;;;;;;;5.32;2.75;;;;;;;-1.02;55.47;98258.13;5040407;28;20032;-56
2021/12/02 09:12:01;;;;;;;6.80;3.13;;;;;;;-1.03;56.02;98251.19;5065226;28;20029;-59
2021/12/02 09:14:27;;;;;;;6.25;2.90;;;;;;;-1.08;55.65;98244.53;5062091;28;20388;-56
2021/12/02 09:16:53;;;;;;;7.43;3.10;;;;;;;-1.07;55.58;98249.69;5052210;28;20037;-55
2021/12/02 09:19:19;;;;;;;6.95;3.42;;;;;;;-1.31;55.95;98212.56;5069216;28;20135;-61
2021/12/02 09:21:45;;;;;;;6.80;3.33;;;;;;;-1.05;55.29;98244.34;5057553;28;20179;-57
2021/12/02 09:24:11;;;;;;;7.00;3.10;;;;;;;-0.97;56.28;98249.13;5063561;28;20605;-59
2021/12/02 09:26:38;;;;;;;6.82;3.47;;;;;;;-0.92;55.69;98252.38;5043940;28;20045;-54
2021/12/02 09:29:04;;;;;;;6.95;2.92;;;;;;;-0.90;55.80;98247.84;5050995;28;20397;-59
2021/12/02 09:31:30;;;;;;;7.55;3.60;;;;;;;-0.89;55.83;98242.50;5068144;28;20040;-59
2021/12/02 09:33:55;;;;;;;8.00;3.28;;;;;;;-0.91;55.97;98248.78;5058941;28;20036;-60
2021/12/02 09:36:21;;;;;;;6.30;3.63;;;;;;;-0.90;55.50;98237.34;5062215;28;20060;-54
2021/12/02 09:38:47;;;;;;;6.45;3.50;;;;;;;-0.92;55.68;98232.16;5065170;28;20106;-54
2021/12/02 09:41:13;;;;;;;8.05;3.38;;;;;;;-1.14;56.18;98190.56;5050376;28;20090;-60
2021/12/02 09:43:39;;;;;;;8.88;3.60;;;;;;;-1.19;56.04;98177.72;5054454;28;20081;-60
2021/12/02 09:46:05;;;;;;;7.00;3.50;;;;;;;-0.99;55.99;98198.47;5062825;28;20464;-62
2021/12/02 09:48:33;;;;;;;6.18;3.25;;;;;;;-0.92;56.37;98212.94;5063073;28;20020;-59
2021/12/02 09:51:10;;;;;;;7.22;3.20;;;;;;;-0.84;56.01;98213.31;5056255;28;20037;-54
2021/12/02 09:54:02;;;;;;;6.05;2.80;;;;;;;-0.77;55.16;98212.00;5042040;28;20096;-55
2021/12/02 09:56:27;;;;;;;7.38;2.90;;;;;;;-0.87;55.49;98189.88;5039296;28;20041;-59
2021/12/02 09:59:01;;;;;;;5.65;2.75;;;;;;;-0.80;55.56;98199.06;5060798;28;20032;-61
2021/12/02 10:01:37;;;;;;;5.10;2.63;;;;;;;-0.85;55.13;98197.63;5059585;28;20044;-60
2021/12/02 10:04:04;;;;;;;9.30;2.13;;;;;;;-0.84;55.54;98197.56;5057649;28;20060;-62
2021/12/02 10:06:31;;;;;;;9.07;2.38;;;;;;;-0.88;55.07;98199.53;5059694;28;20406;-61
2021/12/02 10:09:12;;;;;;;4.25;2.78;;;;;;;-0.84;55.47;98212.47;5045569;28;20052;-62
2021/12/02 10:11:55;;;;;;;4.70;2.50;;;;;;;-0.96;55.38;98193.88;5039439;28;20021;-64
2021/12/02 10:14:32;;;;;;;7.75;2.90;;;;;;;-0.95;55.19;98186.88;5059176;28;20955;-65
2021/12/02 10:17:14;;;;;;;5.05;2.20;;;;;;;-0.90;56.21;98195.31;5061380;28;20032;-58
2021/12/02 10:25:40;;;;;;;5.43;2.42;;;;;;;-1.04;55.26;98191.72;5046190;28;20032;-59
2021/12/02 10:28:11;;;;;;;7.07;3.25;;;;;;;-1.07;56.41;98197.16;5062190;28;20028;-53
2021/12/02 10:30:42;;;;;;;5.38;2.90;;;;;;;-0.97;56.31;98197.44;5052230;28;20548;-53
2021/12/02 10:33:09;;;;;;;4.43;2.33;;;;;;;-0.92;55.84;98197.19;5058992;28;20064;-55
2021/12/02 10:35:46;;;;;;;5.97;2.40;;;;;;;-0.82;55.87;98187.81;5061908;28;20048;-55
2021/12/02 10:38:33;;;;;;;9.38;3.38;;;;;;;-0.75;56.44;98186.47;5061725;28;20479;-52
2021/12/02 10:41:06;;;;;;;6.03;2.47;;;;;;;-0.77;55.29;98180.47;5067550;28;20031;-57
2021/12/02 10:43:32;;;;;;;3.55;2.33;;;;;;;-0.80;55.27;98171.97;5059186;28;20028;-55
2021/12/02 10:46:18;;;;;;;5.70;2.50;;;;;;;-0.77;55.72;98166.50;5058859;28;20025;-59
2021/12/02 10:48:52;;;;;;;3.90;2.30;;;;;;;-0.78;54.97;98168.28;5046932;28;20488;-59
2021/12/02 10:51:50;;;;;;;4.38;2.50;;;;;;;-0.82;55.90;98169.41;5045005;28;20086;-57
2021/12/02 10:54:28;;;;;;;6.15;2.28;;;;;;;-0.86;55.71;98167.91;5056546;28;20098;-62
2021/12/02 10:56:57;;;;;;;5.63;2.60;;;;;;;-0.87;55.79;98163.59;5065585;28;20488;-64
2021/12/02 10:59:48;;;;;;;7.32;2.95;;;;;;;-1.05;56.20;98120.91;5064061;28;20028;-54
2021/12/02 11:02:21;;;;;;;4.63;2.25;;;;;;;-0.84;55.38;98155.53;5057733;28;20064;-52
2021/12/02 11:05:04;;;;;;;3.90;2.42;;;;;;;-0.76;55.87;98149.81;5045447;28;20026;-54
2021/12/02 11:07:33;;;;;;;3.70;2.10;;;;;;;-1.08;55.29;98116.66;5063028;28;20049;-59
2021/12/02 11:10:14;;;;;;;6.32;2.85;;;;;;;-0.85;55.94;98159.09;5052208;28;20020;-55
2021/12/02 11:12:48;;;;;;;5.50;2.35;;;;;;;-0.85;55.71;98161.72;5065866;28;20037;-57
2021/12/02 11:15:17;;;;;;;4.55;2.28;;;;;;;-0.91;56.74;98156.84;5055267;28;20040;-54
2021/12/02 11:17:48;;;;;;;5.65;2.63;;;;;;;-0.88;56.38;98146.13;5060655;28;20456;-59
2021/12/02 11:20:21;;;;;;;6.03;2.70;;;;;;;-0.82;56.33;98144.94;5063546;28;20086;-53
2021/12/02 11:22:52;;;;;;;5.00;3.20;;;;;;;-0.81;55.89;98136.09;5043329;28;20382;-54
2021/12/02 11:25:17;;;;;;;3.58;2.13;;;;;;;-0.75;55.41;98147.06;5064582;28;20033;-56
2021/12/02 11:27:46;;;;;;;4.60;2.08;;;;;;;-0.72;55.40;98135.53;5057371;28;20469;-60
2021/12/02 11:30:18;;;;;;;3.50;2.10;;;;;;;-0.74;55.25;98140.03;5056943;28;20087;-59
2021/12/02 11:32:57;;;;;;;4.05;1.92;;;;;;;-0.76;55.42;98132.22;5066483;28;20040;-55
2021/12/02 11:35:37;;;;;;;4.05;1.98;;;;;;;-0.75;55.38;98118.16;5050461;28;20060;-56
2021/12/02 11:38:05;;;;;;;2.50;1.75;;;;;;;-0.76;55.00;98120.91;5060978;28;20079;-56
2021/12/02 11:40:35;;;;;;;6.00;2.00;;;;;;;-0.81;55.17;98110.66;5054667;28;20047;-58
2021/12/02 11:43:01;;;;;;;5.97;2.10;;;;;;;-0.83;55.83;98109.91;5066754;28;20020;-55
2021/12/02 11:45:30;;;;;;;4.28;2.17;;;;;;;-0.83;56.65;98107.28;5055259;28;20365;-58
2021/12/02 11:47:56;;;;;;;5.57;2.40;;;;;;;-0.81;55.70;98101.94;5066456;28;20060;-55
2021/12/02 11:50:24;;;;;;;5.20;2.28;;;;;;;-0.90;56.26;98109.44;5055615;28;20115;-58
2021/12/02 11:52:50;;;;;;;2.72;2.00;;;;;;;-1.09;56.88;98088.72;5065229;28;20025;-56
2021/12/02 11:55:19;;;;;;;4.25;2.17;;;;;;;-1.02;57.22;98095.25;5054912;28;20116;-54
2021/12/02 11:57:46;;;;;;;8.05;2.38;;;;;;;-1.12;58.02;98088.91;5059270;28;20029;-53
2021/12/02 12:00:15;;;;;;;4.47;2.50;;;;;;;-1.09;57.99;98101.84;5051739;28;20032;-51